createdAt,value
2022-09-03T00:01:25.664Z,65.92
2022-09-03T00:03:52.092Z,68.22
2022-09-03T00:06:18.541Z,70.61
2022-09-03T00:08:45.007Z,70.24
2022-09-03T00:11:11.846Z,70.02
2022-09-03T00:13:38.387Z,69.49
2022-09-03T00:16:04.828Z,69.82
2022-09-03T00:18:31.356Z,69.84
2022-09-03T00:20:57.756Z,69.58
2022-09-03T00:23:24.163Z,70.45
2022-09-03T00:28:34.383Z,71.04
2022-09-03T00:31:00.793Z,71.49
2022-09-03T00:33:27.234Z,70.99
2022-09-03T00:35:53.615Z,71.25
2022-09-03T00:38:20.005Z,71.53
2022-09-03T00:40:46.398Z,74.93
2022-09-03T00:43:12.791Z,75.28
2022-09-03T00:45:39.205Z,74.58
2022-09-03T00:48:05.615Z,73.95
2022-09-03T00:50:32.020Z,75.32
2022-09-03T00:52:58.436Z,76.95
2022-09-03T00:55:24.821Z,78.00
2022-09-03T00:57:51.221Z,79.09
2022-09-03T01:00:17.610Z,78.26
2022-09-03T01:02:44.076Z,78.79
2022-09-03T01:05:10.606Z,78.33
2022-09-03T01:07:37.009Z,78.24
2022-09-03T01:10:03.389Z,77.70
2022-09-03T01:12:29.824Z,76.04
2022-09-03T01:14:56.297Z,75.30
2022-09-03T01:17:22.681Z,74.75
2022-09-03T01:19:49.080Z,73.23
2022-09-03T01:22:15.467Z,72.10
2022-09-03T01:24:41.875Z,70.39
2022-09-03T01:27:08.272Z,70.75
2022-09-03T01:29:34.659Z,70.17
2022-09-03T01:32:01.040Z,69.65
2022-09-03T01:34:27.457Z,70.13
2022-09-03T01:36:53.836Z,70.12
2022-09-03T01:39:20.251Z,69.10
2022-09-03T01:41:46.686Z,69.50
2022-09-03T01:44:13.071Z,69.14
2022-09-03T01:46:39.558Z,64.86
2022-09-03T01:49:06.028Z,68.11
2022-09-03T01:51:32.438Z,71.16
2022-09-03T01:53:58.845Z,73.67
2022-09-03T01:56:25.241Z,75.58
2022-09-03T01:58:51.624Z,74.93
2022-09-03T02:01:18.264Z,75.27
2022-09-03T02:03:44.747Z,73.27
2022-09-03T02:06:11.155Z,73.19
2022-09-03T02:08:37.569Z,72.13
2022-09-03T02:11:04.040Z,71.83
2022-09-03T02:13:30.918Z,72.56
2022-09-03T02:15:57.341Z,73.25
2022-09-03T02:18:23.859Z,72.56
2022-09-03T02:20:50.307Z,72.11
2022-09-03T02:23:16.760Z,72.15
2022-09-03T02:25:43.139Z,72.32
2022-09-03T02:28:16.973Z,71.94
2022-09-03T02:30:44.207Z,71.78
2022-09-03T02:33:10.648Z,71.43
2022-09-03T02:35:37.046Z,71.88
2022-09-03T02:38:03.443Z,70.87
2022-09-03T02:40:29.847Z,72.05
2022-09-03T02:42:56.241Z,72.95
2022-09-03T02:45:22.621Z,73.03
2022-09-03T02:47:49.033Z,72.75
2022-09-03T02:50:15.411Z,71.56
2022-09-03T02:52:41.808Z,70.75
2022-09-03T02:55:08.665Z,71.08
2022-09-03T02:57:35.081Z,70.31
2022-09-03T03:00:01.488Z,70.72
2022-09-03T03:02:27.924Z,71.04
2022-09-03T03:04:54.360Z,71.11
2022-09-03T03:07:20.804Z,70.46
2022-09-03T03:09:47.202Z,70.19
2022-09-03T03:12:13.604Z,72.05
2022-09-03T03:14:40.001Z,72.69
2022-09-03T03:17:06.430Z,73.20
2022-09-03T03:19:32.884Z,72.64
2022-09-03T03:21:59.304Z,73.59
2022-09-03T03:24:25.718Z,72.67
2022-09-03T03:26:52.105Z,73.10
2022-09-03T03:29:18.538Z,72.21
2022-09-03T03:31:44.945Z,72.71
2022-09-03T03:34:11.354Z,71.23
2022-09-03T03:36:37.761Z,71.24
2022-09-03T03:39:04.239Z,70.88
2022-09-03T03:41:30.634Z,70.66
2022-09-03T03:43:57.697Z,70.91
2022-09-03T03:46:24.144Z,71.21
2022-09-03T03:48:50.606Z,71.43
2022-09-03T03:51:16.996Z,71.77
2022-09-03T03:53:43.397Z,71.58
2022-09-03T03:56:09.826Z,71.54
2022-09-03T03:58:36.362Z,70.88
2022-09-03T04:01:02.764Z,70.95
2022-09-03T04:03:29.175Z,70.36
2022-09-03T04:05:55.570Z,70.49
2022-09-03T04:08:21.993Z,70.23
2022-09-03T04:10:48.440Z,71.51
2022-09-03T04:13:14.818Z,70.94
2022-09-03T04:15:41.206Z,71.50
2022-09-03T04:18:07.601Z,70.93
2022-09-03T04:20:34.005Z,70.67
2022-09-03T04:23:00.390Z,71.75
2022-09-03T04:25:26.771Z,72.38
2022-09-03T04:27:53.174Z,71.52
2022-09-03T04:30:19.563Z,70.66
2022-09-03T04:32:47.425Z,71.10
2022-09-03T04:35:13.826Z,72.47
2022-09-03T04:37:40.233Z,72.71
2022-09-03T04:40:06.643Z,72.50
2022-09-03T04:42:33.034Z,71.78
2022-09-03T04:44:59.891Z,72.02
2022-09-03T04:47:26.353Z,72.75
2022-09-03T04:49:52.847Z,73.84
2022-09-03T04:52:19.290Z,74.69
2022-09-03T04:54:45.663Z,74.23
2022-09-03T04:57:12.153Z,74.18
2022-09-03T04:59:38.569Z,74.20
2022-09-03T05:02:04.955Z,73.02
2022-09-03T05:04:31.380Z,72.53
2022-09-03T05:06:57.821Z,72.25
2022-09-03T05:09:24.202Z,71.88
2022-09-03T05:11:50.611Z,72.01
2022-09-03T05:14:17.005Z,71.98
2022-09-03T05:16:43.439Z,71.79
2022-09-03T05:19:19.074Z,72.13
2022-09-03T05:21:45.460Z,72.17
2022-09-03T05:24:11.864Z,72.38
2022-09-03T05:26:38.283Z,72.09
2022-09-03T05:29:04.677Z,72.05
2022-09-03T05:31:31.110Z,72.22
2022-09-03T05:33:57.503Z,72.35
2022-09-03T05:36:23.988Z,72.67
2022-09-03T05:38:50.398Z,72.55
2022-09-03T05:41:16.814Z,73.09
2022-09-03T05:43:45.533Z,72.59
2022-09-03T05:46:11.997Z,71.99
2022-09-03T05:48:38.413Z,71.65
2022-09-03T05:51:04.872Z,70.43
2022-09-03T05:53:31.270Z,71.68
2022-09-03T05:55:57.668Z,72.01
2022-09-03T05:58:24.136Z,72.54
2022-09-03T06:00:50.515Z,73.41
2022-09-03T06:03:17.019Z,74.93
2022-09-03T06:05:43.670Z,74.85
2022-09-03T06:08:12.708Z,74.39
2022-09-03T06:10:41.122Z,73.53
2022-09-03T06:13:07.772Z,73.39
2022-09-03T06:15:34.171Z,73.57
2022-09-03T06:18:00.538Z,73.41
2022-09-03T06:20:26.990Z,73.21
2022-09-03T06:22:53.438Z,74.11
2022-09-03T06:25:19.844Z,77.60
2022-09-03T06:27:46.223Z,82.55
2022-09-03T06:30:12.664Z,85.61
2022-09-03T06:32:39.050Z,87.73
2022-09-03T06:35:05.454Z,84.93
2022-09-03T06:37:31.840Z,84.17
2022-09-03T06:39:58.283Z,82.77
2022-09-03T06:42:24.712Z,80.72
2022-09-03T06:44:51.084Z,79.63
2022-09-03T06:47:17.504Z,78.98
2022-09-03T06:49:43.909Z,76.89
2022-09-03T06:52:10.308Z,75.14
2022-09-03T06:54:36.706Z,75.92
2022-09-03T06:57:03.138Z,76.19
2022-09-03T06:59:29.666Z,75.55
2022-09-03T07:01:56.151Z,79.89
2022-09-03T07:04:22.712Z,80.61
2022-09-03T07:06:49.227Z,79.48
2022-09-03T07:09:15.849Z,80.56
2022-09-03T07:11:42.412Z,81.72
2022-09-03T07:14:08.837Z,79.77
2022-09-03T07:16:35.345Z,78.52
2022-09-03T07:19:01.796Z,78.83
2022-09-03T07:21:28.215Z,79.17
2022-09-03T07:23:54.618Z,78.79
2022-09-03T07:26:21.011Z,79.79
2022-09-03T07:28:47.420Z,79.13
2022-09-03T07:31:13.845Z,78.05
2022-09-03T07:33:40.243Z,76.22
2022-09-03T07:36:06.640Z,77.10
2022-09-03T07:38:33.365Z,77.97
2022-09-03T07:40:59.770Z,77.75
2022-09-03T07:43:26.165Z,75.81
2022-09-03T07:45:52.535Z,76.20
2022-09-03T07:48:18.962Z,75.79
2022-09-03T07:50:45.425Z,77.06
2022-09-03T07:53:11.914Z,78.10
2022-09-03T07:55:38.278Z,77.34
2022-09-03T07:58:04.652Z,77.33
2022-09-03T08:00:31.173Z,75.80
2022-09-03T08:02:57.576Z,76.52
2022-09-03T08:05:23.957Z,77.42
2022-09-03T08:07:50.385Z,75.31
2022-09-03T08:10:16.802Z,73.82
2022-09-03T08:12:43.195Z,73.95
2022-09-03T08:15:09.640Z,73.24
2022-09-03T08:17:36.048Z,73.57
2022-09-03T08:20:03.023Z,72.83
2022-09-03T08:22:29.450Z,73.52
2022-09-03T08:24:55.851Z,72.06
2022-09-03T08:27:22.239Z,73.37
2022-09-03T08:29:48.793Z,72.51
2022-09-03T08:32:15.261Z,72.58
2022-09-03T08:34:41.668Z,71.14
2022-09-03T08:37:08.051Z,71.13
2022-09-03T08:39:34.505Z,72.99
2022-09-03T08:42:00.993Z,72.75
2022-09-03T08:44:27.406Z,72.22
2022-09-03T08:46:53.828Z,72.43
2022-09-03T08:49:20.265Z,72.49
2022-09-03T08:51:46.648Z,73.11
2022-09-03T08:54:13.064Z,70.73
2022-09-03T08:56:39.444Z,69.35
2022-09-03T08:59:05.850Z,68.07
2022-09-03T09:01:32.340Z,68.40
2022-09-03T09:03:58.816Z,69.04
2022-09-03T09:06:25.186Z,68.22
2022-09-03T09:08:51.578Z,67.93
2022-09-03T09:11:17.983Z,69.07
2022-09-03T09:13:44.399Z,69.19
2022-09-03T09:16:10.843Z,67.77
2022-09-03T09:18:37.273Z,68.40
2022-09-03T09:21:03.661Z,66.19
2022-09-03T09:23:30.054Z,66.71
2022-09-03T09:25:56.465Z,67.41
2022-09-03T09:28:22.932Z,68.31
2022-09-03T09:30:49.412Z,70.97
2022-09-03T09:33:15.843Z,68.67
2022-09-03T09:35:42.240Z,69.10
2022-09-03T09:38:08.664Z,70.60
2022-09-03T09:40:35.045Z,70.92
2022-09-03T09:43:01.458Z,71.69
2022-09-03T09:45:30.051Z,72.10
2022-09-03T09:47:56.457Z,70.54
2022-09-03T09:50:26.161Z,72.07
2022-09-03T09:52:57.262Z,73.66
2022-09-03T09:55:25.422Z,73.39
2022-09-03T09:57:51.885Z,74.81
2022-09-03T10:00:18.273Z,73.61
2022-09-03T10:02:44.708Z,72.90
2022-09-03T10:05:11.107Z,72.42
2022-09-03T10:07:37.470Z,70.79
2022-09-03T10:10:03.910Z,71.28
2022-09-03T10:12:30.340Z,71.12
2022-09-03T10:14:56.722Z,70.89
2022-09-03T10:17:24.929Z,67.16
2022-09-03T10:20:03.200Z,67.94
2022-09-03T10:22:32.340Z,66.92
2022-09-03T10:25:01.776Z,66.81
2022-09-03T10:27:28.164Z,67.77
2022-09-03T10:29:58.418Z,67.59
2022-09-03T10:32:24.812Z,66.19
2022-09-03T10:34:53.827Z,66.28
2022-09-03T10:37:20.215Z,66.69
2022-09-03T10:39:50.181Z,65.60
2022-09-03T10:42:18.610Z,64.81
2022-09-03T10:44:45.025Z,65.32
2022-09-03T10:47:11.400Z,64.51
2022-09-03T10:49:37.779Z,63.11
2022-09-03T10:52:04.158Z,63.10
2022-09-03T10:54:30.550Z,63.53
2022-09-03T10:56:56.930Z,63.90
2022-09-03T10:59:26.094Z,63.80
2022-09-03T11:01:55.417Z,63.02
2022-09-03T11:04:21.840Z,64.71
2022-09-03T11:06:48.248Z,64.62
2022-09-03T11:09:14.620Z,65.15
2022-09-03T11:11:41.069Z,68.75
2022-09-03T11:14:07.449Z,66.72
2022-09-03T11:16:33.857Z,66.52
2022-09-03T11:19:00.388Z,60.87
2022-09-03T11:21:26.786Z,61.08
2022-09-03T11:23:55.312Z,61.84
2022-09-03T11:26:21.801Z,61.28
2022-09-03T11:28:48.200Z,58.66
2022-09-03T11:31:14.641Z,60.53
2022-09-03T11:33:41.056Z,59.91
2022-09-03T11:36:07.625Z,61.42
2022-09-03T11:38:34.014Z,60.58
2022-09-03T11:41:00.386Z,62.68
2022-09-03T11:43:26.783Z,58.31
2022-09-03T11:45:54.396Z,59.12
2022-09-03T11:48:20.922Z,59.04
2022-09-03T11:50:47.343Z,60.39
2022-09-03T11:53:13.724Z,61.17
2022-09-03T11:55:43.731Z,60.63
2022-09-03T11:58:10.290Z,61.81
2022-09-03T12:00:36.686Z,59.50
2022-09-03T12:03:03.101Z,60.59
2022-09-03T12:05:29.503Z,60.52
2022-09-03T12:07:55.902Z,59.42
2022-09-03T12:10:22.304Z,58.81
2022-09-03T12:12:48.708Z,58.16
2022-09-03T12:15:15.102Z,57.70
2022-09-03T12:17:41.486Z,58.25
2022-09-03T12:20:07.866Z,57.76
2022-09-03T12:22:34.263Z,56.55
2022-09-03T12:25:00.648Z,54.49
2022-09-03T12:27:27.056Z,54.51
2022-09-03T12:29:53.447Z,52.53
2022-09-03T12:32:21.145Z,51.38
2022-09-03T12:34:50.711Z,52.12
2022-09-03T12:37:17.403Z,52.52
2022-09-03T12:42:30.183Z,53.97
2022-09-03T12:44:56.668Z,56.34
2022-09-03T12:47:38.596Z,58.18
2022-09-03T12:50:05.044Z,57.92
2022-09-03T12:52:31.507Z,59.93
2022-09-03T12:54:57.911Z,58.37
2022-09-03T12:57:24.359Z,57.63
2022-09-03T12:59:50.910Z,57.11
2022-09-03T13:02:17.414Z,58.56
2022-09-03T13:04:43.875Z,58.27
2022-09-03T13:07:10.318Z,58.68
2022-09-03T13:09:36.744Z,56.95
2022-09-03T13:12:03.141Z,55.71
2022-09-03T13:14:29.546Z,57.14
2022-09-03T13:16:55.979Z,57.87
2022-09-03T13:19:22.465Z,57.13
2022-09-03T13:21:48.909Z,57.19
2022-09-03T13:24:15.337Z,55.91
2022-09-03T13:26:41.723Z,54.46
2022-09-03T13:29:08.145Z,53.07
2022-09-03T13:31:34.521Z,52.80
2022-09-03T13:34:00.938Z,53.81
2022-09-03T13:36:28.353Z,53.80
2022-09-03T13:38:54.738Z,53.65
2022-09-03T13:41:21.162Z,55.77
2022-09-03T13:43:47.544Z,53.99
2022-09-03T13:46:13.975Z,54.71
2022-09-03T13:48:42.083Z,52.12
2022-09-03T13:51:09.501Z,53.94
2022-09-03T13:53:35.916Z,55.82
2022-09-03T13:56:02.316Z,54.15
2022-09-03T13:58:28.723Z,53.87
2022-09-03T14:00:55.310Z,51.42
2022-09-03T14:03:21.731Z,50.74
2022-09-03T14:05:48.122Z,51.55
2022-09-03T14:08:14.513Z,52.93
2022-09-03T14:10:40.926Z,51.77
2022-09-03T14:13:07.324Z,55.05
2022-09-03T14:15:33.763Z,55.13
2022-09-03T14:18:00.209Z,54.47
2022-09-03T14:20:26.635Z,54.43
2022-09-03T14:22:53.025Z,53.33
2022-09-03T14:25:19.452Z,53.86
2022-09-03T14:27:45.854Z,50.79
2022-09-03T14:30:12.244Z,49.15
2022-09-03T14:32:42.386Z,48.51
2022-09-03T14:35:09.080Z,48.81
2022-09-03T14:37:35.485Z,50.81
2022-09-03T14:40:02.411Z,50.39
2022-09-03T14:42:28.989Z,52.03
2022-09-03T14:44:55.407Z,53.33
2022-09-03T14:47:21.789Z,53.69
2022-09-03T14:49:48.201Z,52.24
2022-09-03T14:52:14.604Z,53.11
2022-09-03T14:54:40.997Z,54.42
2022-09-03T14:57:10.872Z,52.81
2022-09-03T14:59:39.226Z,54.74
2022-09-03T15:02:05.654Z,53.28
2022-09-03T15:04:32.090Z,51.36
2022-09-03T15:06:58.471Z,52.54
2022-09-03T15:09:24.865Z,52.67
2022-09-03T15:11:51.231Z,50.79
2022-09-03T15:14:17.627Z,52.56
2022-09-03T15:16:44.061Z,51.90
2022-09-03T15:19:10.535Z,51.96
2022-09-03T15:21:36.902Z,55.12
2022-09-03T15:24:03.276Z,56.70
2022-09-03T15:26:29.680Z,57.47
2022-09-03T15:28:56.068Z,56.58
2022-09-03T15:31:22.473Z,54.19
2022-09-03T15:33:48.910Z,50.14
2022-09-03T15:36:15.305Z,48.01
2022-09-03T15:38:41.692Z,46.83
2022-09-03T15:41:08.071Z,47.59
2022-09-03T15:43:34.481Z,44.19
2022-09-03T15:46:01.040Z,42.30
2022-09-03T15:48:27.521Z,40.12
2022-09-03T15:50:53.917Z,39.05
2022-09-03T15:53:20.310Z,37.76
2022-09-03T15:55:46.704Z,36.54
2022-09-03T15:58:13.121Z,39.25
2022-09-03T16:00:40.986Z,37.96
2022-09-03T16:03:07.437Z,35.36
2022-09-03T16:05:33.884Z,34.52
2022-09-03T16:08:00.346Z,33.15
2022-09-03T16:10:26.810Z,31.59
2022-09-03T16:12:53.239Z,32.01
2022-09-03T16:15:19.635Z,32.22
2022-09-03T16:17:46.019Z,34.36
2022-09-03T16:20:12.427Z,35.78
2022-09-03T16:22:38.790Z,38.06
2022-09-03T16:25:05.240Z,37.85
2022-09-03T16:27:31.628Z,35.97
2022-09-03T16:29:58.017Z,36.04
2022-09-03T16:32:24.417Z,36.72
2022-09-03T16:34:50.790Z,37.18
2022-09-03T16:37:17.191Z,40.41
2022-09-03T16:39:43.631Z,46.37
2022-09-03T16:42:10.029Z,47.87
2022-09-03T16:44:36.427Z,49.30
2022-09-03T16:47:02.832Z,50.23
2022-09-03T16:49:34.797Z,50.80
2022-09-03T16:52:03.868Z,52.09
2022-09-03T16:54:30.259Z,53.68
2022-09-03T16:56:56.637Z,54.05
2022-09-03T16:59:23.029Z,54.33
2022-09-03T17:01:49.472Z,52.70
2022-09-03T17:04:15.913Z,53.10
2022-09-03T17:06:42.303Z,52.24
2022-09-03T17:09:08.724Z,53.00
2022-09-03T17:11:35.118Z,53.56
2022-09-03T17:14:01.501Z,53.23
2022-09-03T17:16:27.926Z,52.70
2022-09-03T17:18:54.339Z,52.48
2022-09-03T17:21:20.739Z,52.01
2022-09-03T17:23:47.133Z,53.61
2022-09-03T17:26:13.541Z,54.41
2022-09-03T17:28:39.936Z,55.69
2022-09-03T17:31:06.371Z,54.98
2022-09-03T17:33:32.832Z,55.46
2022-09-03T17:35:59.200Z,56.42
2022-09-03T17:38:25.598Z,55.05
2022-09-03T17:40:51.977Z,54.88
2022-09-03T17:43:18.391Z,56.95
2022-09-03T17:45:44.787Z,56.30
2022-09-03T17:48:11.174Z,56.46
2022-09-03T17:50:37.580Z,56.48
2022-09-03T17:53:03.955Z,55.86
2022-09-03T17:55:30.358Z,55.98
2022-09-03T17:57:56.727Z,55.47
2022-09-03T18:00:23.130Z,56.39
2022-09-03T18:02:49.521Z,56.74
2022-09-03T18:05:15.920Z,56.26
2022-09-03T18:07:42.317Z,57.36
2022-09-03T18:10:08.699Z,55.85
2022-09-03T18:12:35.080Z,55.47
2022-09-03T18:15:01.461Z,55.13
2022-09-03T18:17:27.889Z,54.58
2022-09-03T18:19:54.289Z,54.28
2022-09-03T18:22:20.696Z,54.23
2022-09-03T18:24:50.886Z,54.73
2022-09-03T18:27:17.731Z,53.22
2022-09-03T18:29:44.125Z,53.21
2022-09-03T18:32:10.500Z,53.79
2022-09-03T18:34:36.892Z,55.59
2022-09-03T18:37:03.273Z,51.69
2022-09-03T18:39:29.711Z,50.96
2022-09-03T18:41:56.121Z,50.73
2022-09-03T18:44:22.528Z,51.03
2022-09-03T18:48:00.940Z,52.26
2022-09-03T18:49:35.295Z,51.46
2022-09-03T18:52:01.677Z,51.26
2022-09-03T18:54:28.077Z,51.71
2022-09-03T18:56:54.468Z,51.41
2022-09-03T18:59:20.858Z,50.36
2022-09-03T19:01:47.418Z,50.84
2022-09-03T19:04:13.888Z,49.74
2022-09-03T19:06:40.281Z,49.72
2022-09-03T19:09:07.877Z,49.96
2022-09-03T19:11:34.269Z,49.79
2022-09-03T19:14:00.685Z,50.36
2022-09-03T19:16:27.104Z,50.41
2022-09-03T19:18:56.000Z,50.81
2022-09-03T19:21:22.369Z,51.24
2022-09-03T19:23:48.770Z,50.96
2022-09-03T19:26:15.181Z,50.76
2022-09-03T19:28:41.564Z,51.17
2022-09-03T19:31:07.969Z,51.51
2022-09-03T19:33:34.421Z,52.19
2022-09-03T19:36:01.041Z,52.61
2022-09-03T19:38:29.265Z,53.53
2022-09-03T19:40:55.666Z,53.95
2022-09-03T19:43:22.066Z,53.83
2022-09-03T19:45:48.507Z,53.89
2022-09-03T19:48:15.052Z,53.52
2022-09-03T19:50:41.441Z,53.84
2022-09-03T19:53:07.832Z,53.92
2022-09-03T19:55:34.220Z,52.19
2022-09-03T19:58:00.610Z,51.88
2022-09-03T20:00:33.210Z,50.85
2022-09-03T20:03:00.037Z,50.85
2022-09-03T20:05:26.478Z,52.93
2022-09-03T20:07:52.890Z,53.45
2022-09-03T20:10:19.273Z,54.48
2022-09-03T20:12:45.681Z,54.54
2022-09-03T20:15:12.074Z,54.77
2022-09-03T20:17:38.493Z,54.30
2022-09-03T20:20:04.888Z,53.90
2022-09-03T20:22:31.286Z,53.83
2022-09-03T20:24:57.692Z,53.89
2022-09-03T20:27:24.087Z,53.20
2022-09-03T20:29:50.498Z,53.04
2022-09-03T20:32:16.875Z,51.33
2022-09-03T20:34:43.260Z,52.17
2022-09-03T20:37:09.680Z,52.34
2022-09-03T20:39:36.112Z,52.05
2022-09-03T20:42:02.517Z,52.48
2022-09-03T20:44:28.906Z,53.69
2022-09-03T20:46:55.371Z,54.69
2022-09-03T20:49:21.784Z,55.49
2022-09-03T20:51:48.166Z,55.29
2022-09-03T20:54:14.551Z,55.31
2022-09-03T20:56:40.956Z,55.08
2022-09-03T20:59:07.364Z,55.10
2022-09-03T21:01:33.820Z,55.12
2022-09-03T21:04:04.155Z,54.48
2022-09-03T21:06:30.942Z,54.27
2022-09-03T21:08:57.357Z,53.96
2022-09-03T21:11:29.810Z,54.43
2022-09-03T21:13:56.205Z,55.12
2022-09-03T21:16:22.627Z,55.41
2022-09-03T21:18:49.073Z,55.84
2022-09-03T21:21:15.445Z,56.31
2022-09-03T21:23:41.873Z,56.91
2022-09-03T21:26:08.279Z,56.13
2022-09-03T21:28:34.664Z,55.35
2022-09-03T21:31:01.169Z,55.58
2022-09-03T21:33:27.616Z,56.28
2022-09-03T21:35:54.027Z,56.21
2022-09-03T21:38:20.467Z,56.29
2022-09-03T21:40:47.017Z,56.11
2022-09-03T21:43:13.392Z,55.73
2022-09-03T21:45:39.811Z,55.89
2022-09-03T21:48:06.271Z,56.14
2022-09-03T21:50:32.697Z,56.25
2022-09-03T21:52:59.841Z,55.73
2022-09-03T21:55:26.257Z,54.92
2022-09-03T21:57:53.704Z,54.05
2022-09-03T22:00:20.124Z,53.38
2022-09-03T22:02:46.633Z,53.86
2022-09-03T22:05:13.182Z,54.48
2022-09-03T22:07:39.581Z,54.31
2022-09-03T22:10:05.967Z,54.05
2022-09-03T22:12:32.404Z,53.39
2022-09-03T22:14:58.789Z,51.94
2022-09-03T22:17:25.189Z,52.52
2022-09-03T22:19:51.575Z,52.45
2022-09-03T22:22:17.986Z,53.00
2022-09-03T22:24:44.385Z,52.56
2022-09-03T22:27:10.789Z,52.82
2022-09-03T22:29:37.226Z,52.03
2022-09-03T22:32:03.654Z,53.10
2022-09-03T22:34:30.097Z,53.76
2022-09-03T22:36:56.493Z,54.46
2022-09-03T22:39:22.931Z,54.26
2022-09-03T22:41:49.372Z,53.51
2022-09-03T22:44:15.759Z,53.40
2022-09-03T22:46:42.186Z,53.88
2022-09-03T22:49:09.118Z,54.59
2022-09-03T22:51:35.542Z,55.26
2022-09-03T22:54:01.999Z,56.05
2022-09-03T22:56:28.412Z,55.84
2022-09-03T22:58:54.819Z,55.86
2022-09-03T23:01:21.254Z,55.27
2022-09-03T23:03:47.744Z,55.60
2022-09-03T23:06:14.438Z,55.83
2022-09-03T23:08:40.844Z,56.37
2022-09-03T23:11:07.254Z,57.10
2022-09-03T23:13:33.653Z,57.13
2022-09-03T23:16:00.076Z,57.43
2022-09-03T23:18:26.516Z,57.11
2022-09-03T23:20:52.935Z,57.54
2022-09-03T23:23:19.386Z,57.85
2022-09-03T23:25:45.805Z,58.07
2022-09-03T23:28:12.200Z,58.05
2022-09-03T23:30:38.610Z,58.36
2022-09-03T23:33:05.002Z,57.96
2022-09-03T23:35:31.440Z,58.54
2022-09-03T23:37:57.834Z,58.29
2022-09-03T23:40:24.223Z,59.01
2022-09-03T23:42:50.602Z,59.08
2022-09-03T23:45:17.080Z,59.00
2022-09-03T23:47:44.963Z,58.52
2022-09-03T23:50:12.392Z,60.32
2022-09-03T23:52:38.787Z,68.08
2022-09-03T23:55:05.177Z,71.71
2022-09-03T23:57:31.619Z,71.56
2022-09-03T23:59:58.000Z,71.68
